Date,TemperatureHighF,TemperatureAvgF,TemperatureLowF,DewpointHighF,DewpointAvgF,DewpointLowF,HumidityHigh,HumidityAvg,HumidityLow,PressureMaxIn,PressureMinIn,WindSpeedMaxMPH,WindSpeedAvgMPH,GustSpeedMaxMPH,PrecipitationSumIn
2013-1-1,32,20,7,15,6,1,82,56,31,30.43,30.30,10,0,10,0.00
2013-1-2,39,24,10,9,5,1,74,46,22,30.41,30.26,9,0,10,0.00
2013-1-3,40,26,12,7,3,0,73,39,9,30.40,30.31,10,0,10,0.00
2013-1-18,22,18,17,8,4,2,55,53,51,30.41,30.38,0,0,0,0.00
2013-1-19,50,25,11,11,2,0,66,41,8,30.47,30.32,9,0,11,0.00
2013-1-20,50,28,12,9,2,0,68,37,10,30.41,30.25,8,0,8,0.00
2013-1-21,51,30,14,10,3,0,68,35,7,30.42,30.29,8,0,9,0.00
2013-1-22,58,32,11,16,6,0,65,37,5,30.41,30.27,6,0,6,0.00
2013-1-23,55,44,30,34,27,14,77,51,35,30.34,30.06,9,0,9,0.00
2013-1-24,48,40,33,43,37,32,95,88,76,30.18,30.00,5,0,5,0.14
2013-1-25,46,39,34,43,38,33,96,94,88,30.18,29.96,3,0,4,0.27
2013-1-26,46,39,34,42,37,32,96,93,81,29.96,29.82,3,0,7,0.08
2013-1-27,38,31,21,33,25,18,92,79,58,29.91,29.82,13,1,13,0.01
2013-1-28,28,20,10,19,16,7,92,83,60,30.29,29.89,12,0,12,0.00
2013-1-29,49,33,11,27,20,8,92,63,38,30.40,30.29,13,1,14,0.11
2013-1-30,50,37,27,24,22,19,80,56,30,30.36,30.22,7,0,9,0.00
2013-1-31,50,34,23,27,23,20,92,67,33,30.34,30.22,10,0,10,0.00
2013-2-1,55,35,20,28,21,16,89,63,23,30.36,30.25,6,0,7,0.00
2013-2-2,56,40,26,33,24,18,86,57,25,30.35,30.20,7,0,8,0.01
2013-2-3,47,38,26,39,31,23,95,78,49,30.20,29.98,5,0,7,0.13
2013-2-4,50,34,23,30,22,14,93,67,28,30.22,30.09,9,0,11,0.01
2013-2-5,55,36,20,26,18,10,74,52,18,30.18,30.00,7,0,8,0.00
2013-2-6,48,34,20,24,10,0,77,40,6,30.17,29.94,8,0,11,0.00
2013-2-7,51,32,16,26,10,0,84,45,13,30.24,29.88,8,0,12,0.00
2013-2-8,26,22,18,22,18,15,90,86,78,29.91,29.77,8,0,11,0.00
2013-2-9,32,21,9,24,16,6,90,82,62,30.17,29.90,0,0,0,0.22
2013-2-10,33,18,4,22,12,0,92,77,48,30.22,30.13,0,0,0,0.00
2013-2-11,27,21,12,18,9,0,91,61,33,30.41,30.17,4,0,5,0.00
2013-2-12,37,22,7,13,8,1,79,55,33,30.56,30.40,7,0,9,0.00
2013-2-13,47,32,17,20,15,9,82,53,30,30.49,30.28,10,0,10,0.01
2013-2-14,45,31,18,23,18,15,90,63,35,30.41,30.27,7,1,12,0.00
2013-2-15,49,38,25,19,10,0,73,33,15,30.41,30.30,13,2,16,0.00
2013-2-16,55,39,21,15,7,0,65,29,7,30.37,30.05,8,0,9,0.00
2013-2-17,49,33,20,21,13,6,79,48,19,30.07,29.93,8,0,12,0.00
2013-2-18,52,31,14,24,13,1,83,52,17,30.13,29.97,6,0,7,0.00
2013-2-19,42,28,21,25,14,0,91,60,14,29.97,29.59,8,0,10,0.00
2013-2-20,31,21,13,23,17,10,91,85,67,30.10,29.53,12,0,15,0.00
2013-2-21,31,19,8,20,11,5,93,70,43,30.29,30.09,8,0,9,0.01
2013-2-22,42,24,8,18,10,3,82,60,31,30.40,30.28,8,0,11,0.03
2013-2-23,49,33,17,24,15,7,85,54,18,30.35,29.90,12,1,15,0.01
2013-2-24,33,25,17,7,1,0,49,29,13,30.36,30.03,22,3,22,0.00
2013-2-25,51,32,13,14,5,0,62,34,16,30.44,30.16,7,0,9,0.00
2013-2-26,42,30,19,12,6,0,70,38,17,30.27,30.08,11,1,11,0.00
2013-2-27,41,29,14,11,4,0,72,39,17,30.49,30.27,9,1,12,0.00
2013-2-28,48,32,16,16,10,4,74,44,20,30.55,30.44,12,1,12,0.00
2013-3-1,54,37,21,18,15,12,77,46,20,30.56,30.36,12,1,13,0.00
2013-3-2,62,41,21,23,16,4,79,42,13,30.45,30.17,9,0,9,0.00
2013-3-3,52,42,34,30,23,9,84,49,27,30.17,29.82,12,1,15,0.00
2013-3-4,52,38,24,32,26,18,90,66,31,30.11,29.86,8,1,10,0.00
2013-3-5,55,38,23,38,26,13,86,65,28,30.15,29.96,9,0,9,0.00
2013-3-6,52,37,28,29,22,8,87,59,22,30.00,29.88,7,0,9,0.00
2013-3-7,43,32,26,31,27,22,92,82,61,29.91,29.81,6,0,6,0.00
2013-3-8,30,27,23,26,23,21,93,86,71,29.98,29.68,2,0,4,0.00
2013-3-9,37,32,24,27,23,18,91,72,48,30.25,29.95,18,1,25,0.00
2013-3-10,48,36,24,20,12,4,65,40,17,30.35,30.21,10,1,19,0.10
2013-3-11,57,37,19,23,9,1,57,35,11,30.37,30.16,8,0,8,0.00
2013-3-12,60,41,24,25,18,9,75,45,19,30.26,30.13,9,1,11,0.00
2013-3-13,65,45,26,26,21,18,78,45,16,30.31,30.15,10,1,10,0.00
2013-3-14,70,48,28,32,23,18,77,43,17,30.24,30.08,9,1,11,0.00
2013-3-15,70,48,31,36,24,5,84,47,10,30.12,29.92,5,0,7,0.00
2013-3-16,63,50,38,29,19,10,61,32,13,29.92,29.77,8,1,9,0.00
2013-3-17,62,48,34,24,13,1,61,28,1,29.90,29.80,11,1,19,0.00
2013-3-18,61,45,28,24,17,3,56,34,16,30.00,29.87,7,0,10,0.00
2013-3-19,61,46,35,36,25,18,76,46,26,30.02,29.92,6,0,10,0.00
2013-3-20,59,47,36,36,30,23,74,55,25,30.02,29.84,12,1,12,0.00
2013-3-21,64,47,34,32,20,0,68,39,8,29.85,29.65,8,1,8,0.00
2013-3-22,58,43,28,26,10,0,67,29,6,29.86,29.65,10,1,11,0.00
2013-3-23,57,40,22,27,12,0,57,34,13,30.02,29.83,10,1,10,0.00
2013-3-24,59,42,29,23,18,9,68,41,16,29.99,29.87,9,0,9,0.00
2013-3-25,64,44,25,30,18,6,76,41,10,30.01,29.89,9,0,10,0.00
2013-3-26,62,46,33,32,17,0,77,39,9,29.91,29.77,8,0,10,0.00
2013-3-27,55,42,32,33,30,25,86,63,38,29.96,29.80,12,1,12,0.00
2013-3-28,61,44,32,35,30,25,88,61,30,30.03,29.93,7,0,7,0.00
2013-3-29,59,45,27,36,30,22,93,62,30,30.09,30.01,7,1,9,0.00
2013-3-30,59,48,36,35,31,27,88,55,31,30.07,29.92,8,1,12,0.00
2013-3-31,56,43,34,36,32,26,88,68,35,29.97,29.88,10,0,10,0.00
2013-4-1,54,40,28,33,23,10,86,56,20,30.03,29.92,10,1,12,0.00
2013-4-2,59,40,23,29,24,16,90,56,27,30.09,29.98,10,1,11,0.00
2013-4-3,62,44,26,36,27,20,84,55,25,30.15,30.03,9,1,10,0.00
2013-4-4,64,47,32,39,27,16,81,52,16,30.08,29.89,6,0,9,0.00
2013-4-5,62,47,34,41,31,12,91,61,17,29.94,29.83,12,1,12,0.00
2013-4-6,65,48,32,34,25,17,79,43,20,29.96,29.82,8,0,9,0.00
2013-4-7,65,49,34,41,28,18,78,46,19,29.89,29.64,8,0,8,0.00
2013-4-8,40,35,30,32,27,21,91,72,50,29.76,29.32,22,1,22,0.01
2013-4-9,46,37,27,23,10,0,74,36,13,30.09,29.75,15,2,17,0.00
2013-4-10,56,43,31,15,9,0,50,26,11,30.17,30.02,20,3,22,0.00
2013-4-11,64,45,28,27,21,12,66,42,18,30.05,29.72,7,1,9,0.00
2013-4-12,63,46,29,34,26,22,77,51,23,29.85,29.76,15,1,15,0.00
2013-4-13,62,48,33,30,22,4,67,38,17,29.84,29.64,11,1,11,0.00
2013-4-14,69,52,38,31,24,19,61,37,17,29.67,29.51,9,1,11,0.00
2013-4-15,61,46,34,35,20,0,84,42,9,29.60,29.51,10,1,12,0.00
2013-4-16,44,34,27,26,16,7,76,47,27,29.92,29.58,12,1,15,0.00
2013-4-17,42,33,24,22,10,0,85,43,17,30.25,29.91,13,2,13,0.01
2013-4-18,50,36,26,6,2,0,39,23,9,30.33,30.23,12,1,12,0.00
2013-4-19,62,43,22,18,6,0,40,23,11,30.33,30.03,12,1,12,0.00
2013-4-20,66,49,31,31,20,13,61,36,14,30.04,29.91,17,1,17,0.00
2013-4-21,73,51,30,33,24,12,71,41,11,30.03,29.88,8,0,9,0.00
2013-4-22,74,54,34,37,22,9,62,33,9,29.93,29.68,9,0,10,0.00
2013-4-23,61,49,38,31,18,7,62,34,13,29.86,29.70,13,1,13,0.00
2013-4-24,66,49,34,31,22,14,68,39,16,29.87,29.73,14,1,14,0.00
2013-4-25,61,47,31,31,21,10,76,40,14,30.00,29.74,9,1,10,0.00
2013-4-26,66,48,29,30,19,12,62,36,14,30.14,30.00,10,1,13,0.00
2013-4-27,68,52,31,34,17,5,73,34,9,30.17,29.99,15,1,15,0.00
2013-4-28,73,55,36,31,20,12,55,30,11,30.01,29.79,11,1,17,0.00
2013-4-29,76,56,36,36,20,12,63,29,9,29.84,29.65,8,1,10,0.00
2013-4-30,75,58,42,36,24,3,44,28,16,29.67,29.54,7,0,8,0.00
2013-5-1,61,50,36,28,9,0,61,21,6,30.12,29.63,12,2,14,0.00
2013-5-2,60,47,31,1,1,1,22,10,3,30.22,30.11,14,2,15,0.00
2013-5-3,68,49,25,16,4,0,37,18,6,30.15,29.84,11,1,13,0.00
2013-5-4,69,48,33,35,19,8,57,34,10,29.86,29.58,8,1,10,0.00
2013-5-5,53,44,36,36,25,11,89,52,27,29.77,29.62,7,0,8,0.00
2013-5-6,53,41,32,42,34,28,93,77,52,29.88,29.75,9,0,9,0.00
2013-5-7,51,39,31,34,30,26,89,72,42,29.99,29.87,6,1,8,0.00
2013-5-8,55,42,28,41,34,26,94,75,46,30.03,29.95,9,1,11,0.00
2013-5-9,58,44,29,41,34,28,95,74,35,30.05,29.96,10,1,13,0.05
2013-5-10,64,51,32,43,33,24,96,56,23,30.10,30.03,13,2,18,0.00
2013-5-11,70,55,35,36,28,22,80,41,18,30.10,29.99,13,1,14,0.00
2013-5-12,75,57,36,38,26,18,68,36,13,30.13,29.93,9,1,11,0.00
2013-5-13,77,60,39,41,30,18,71,37,11,30.02,29.85,10,0,10,0.00
2013-5-14,75,59,43,29,23,15,46,28,12,29.89,29.70,11,1,11,0.00
2013-5-15,74,56,43,38,29,19,64,38,16,29.82,29.73,7,1,11,0.00
2013-5-16,73,56,39,35,22,1,70,34,1,29.76,29.65,4,0,5,0.00
2013-5-17,63,50,40,37,31,23,83,51,22,29.79,29.64,3,1,5,0.00
2013-5-18,69,52,34,36,30,23,91,49,19,29.89,29.80,8,1,9,0.00
2013-5-19,70,55,37,28,23,20,52,31,16,29.86,29.78,7,1,7,0.00
2013-5-20,67,51,32,25,20,15,60,34,16,29.95,29.85,8,1,11,0.00
2013-5-21,73,55,33,37,24,11,56,32,13,29.95,29.71,3,1,4,0.00
2013-5-22,69,56,46,34,18,1,48,26,1,29.70,29.50,5,1,8,0.00
2013-5-23,67,53,39,33,9,0,58,19,1,29.73,29.55,3,0,6,0.00
2013-5-24,69,50,31,39,22,0,55,35,9,29.84,29.73,4,0,4,0.00
2013-5-25,71,53,38,23,8,0,37,18,4,29.82,29.76,8,0,11,0.00
2013-5-26,72,54,38,36,21,2,66,31,14,29.83,29.77,8,1,8,0.00
2013-5-27,74,57,40,41,29,12,66,40,12,29.81,29.65,8,1,11,0.00
2013-5-28,69,55,40,38,32,26,64,44,24,29.65,29.54,12,1,12,0.00
2013-5-29,74,57,36,42,30,3,76,41,7,29.72,29.59,17,1,17,0.00
2013-5-30,80,60,39,45,30,6,71,37,6,29.71,29.64,10,1,13,0.00
2013-5-31,75,62,45,26,22,13,43,24,14,29.79,29.69,12,2,16,0.00
2013-6-1,79,62,40,32,21,12,48,25,9,29.81,29.69,11,1,13,0.00
2013-6-2,82,63,43,44,30,20,56,32,11,29.72,29.52,8,1,11,0.00
2013-6-3,78,61,41,37,26,16,49,29,12,29.67,29.56,9,1,10,0.00
2013-6-4,76,59,38,34,23,14,60,31,10,29.79,29.66,12,1,12,0.00
2013-6-5,80,61,39,35,20,13,52,24,8,29.85,29.74,12,1,14,0.00
2013-6-6,84,64,43,37,24,19,49,25,10,29.80,29.67,11,1,12,0.00
2013-6-7,84,66,44,36,22,15,45,23,8,29.74,29.61,11,1,23,0.00
2013-6-8,89,69,46,42,23,8,52,24,5,29.68,29.60,14,1,14,0.00
2013-6-9,85,67,47,35,17,0,44,17,3,29.64,29.56,9,1,14,0.00
2013-6-10,73,60,47,30,19,6,39,21,8,29.76,29.58,13,1,14,0.00
2013-6-11,83,64,46,40,26,18,51,26,10,29.84,29.74,8,0,8,0.00
2013-6-12,83,64,47,42,26,6,43,26,11,29.80,29.68,7,1,9,0.00
2013-6-13,81,62,44,30,15,0,50,21,2,29.80,29.72,7,0,10,0.00
2013-6-14,80,60,36,31,11,0,47,18,2,29.76,29.66,12,1,12,0.00
2013-6-15,77,52,38,29,12,0,33,21,2,29.80,29.71,8,0,12,0.00
2013-6-16,78,58,34,32,10,0,36,17,2,29.87,29.79,8,1,10,0.00
2013-6-17,79,60,36,40,20,0,55,28,2,29.87,29.74,8,1,8,0.00
2013-6-18,82,62,44,31,16,0,48,22,3,29.77,29.61,6,1,8,0.00
2013-6-19,79,61,44,32,15,0,50,20,1,29.64,29.56,11,1,11,0.00
2013-6-20,80,60,38,38,19,0,61,26,5,29.68,29.62,7,0,9,0.00
2013-6-21,80,62,44,36,24,5,61,29,7,29.68,29.62,9,1,9,0.00
2013-6-22,76,61,45,44,28,21,57,32,13,29.69,29.62,10,1,11,0.00
2013-6-23,76,60,42,39,30,19,76,38,12,29.66,29.54,7,0,8,0.00
2013-6-24,68,58,47,45,37,14,81,47,15,29.71,29.56,7,1,7,0.00
2013-6-25,81,64,47,49,44,37,87,53,24,29.80,29.71,7,1,8,0.00
2013-6-26,82,68,52,48,45,37,79,48,23,29.82,29.74,8,1,9,0.00
2013-6-27,84,68,50,48,44,37,62,44,24,29.87,29.80,11,1,12,0.00
2013-6-28,91,70,50,44,35,23,57,31,13,29.88,29.73,10,1,10,0.00
2013-6-29,91,72,52,45,31,16,52,26,8,29.80,29.65,7,0,10,0.00
2013-6-30,90,72,53,42,33,24,41,26,12,29.72,29.60,6,0,9,0.00
2013-7-1,87,71,56,50,41,32,54,36,18,29.72,29.62,11,0,11,0.00
2013-7-2,87,70,53,46,41,37,74,39,19,29.79,29.70,11,0,11,0.00
2013-7-3,90,74,57,47,42,38,61,37,18,29.76,29.55,7,0,7,0.00
2013-7-4,89,71,54,59,42,39,59,39,20,29.63,29.51,7,0,9,0.00
2013-7-5,81,68,59,46,43,35,60,43,20,29.62,29.52,5,0,5,0.00
2013-7-6,84,66,53,46,36,22,61,36,14,29.65,29.54,8,0,8,0.00
2013-7-7,87,68,50,42,31,20,53,28,12,29.72,29.60,9,1,10,0.00
2013-7-8,86,67,47,39,27,17,48,27,8,29.84,29.71,8,0,10,0.00
2013-7-9,84,69,50,48,32,24,48,28,13,29.88,29.79,9,0,9,0.00
2013-7-10,84,72,62,43,36,32,38,27,18,29.84,29.64,9,1,10,0.00
2013-7-11,69,64,57,52,44,35,74,50,38,29.73,29.65,6,0,9,0.00
2013-7-12,75,61,51,51,45,39,79,57,34,29.81,29.71,6,0,8,0.00
2013-7-13,77,63,47,48,42,35,78,49,26,29.86,29.75,8,0,11,0.01
2013-7-14,80,66,52,47,41,34,59,41,22,29.83,29.67,7,0,9,0.00
2013-7-15,83,66,50,48,41,30,77,43,25,29.73,29.59,11,1,13,0.00
2013-7-16,84,67,49,37,32,22,54,29,12,29.76,29.64,10,1,10,0.00
2013-7-17,80,62,40,32,19,1,57,25,3,29.91,29.75,12,1,12,0.00
2013-7-18,84,66,45,34,24,18,49,23,9,29.91,29.74,11,1,11,0.00
2013-7-19,84,68,52,46,34,21,47,30,14,29.79,29.63,9,1,9,0.00
2013-7-20,80,68,59,59,48,35,82,49,35,29.72,29.56,13,1,13,0.03
2013-7-21,69,62,55,60,56,51,96,83,59,29.76,29.58,13,0,14,0.79
2013-7-22,71,60,52,63,56,50,96,87,64,29.83,29.72,8,0,11,1.29
2013-7-23,75,61,50,62,54,49,97,79,50,29.88,29.77,8,0,8,0.01
2013-7-24,80,64,50,58,51,42,96,65,40,29.85,29.72,5,0,9,0.00
2013-7-25,83,67,50,53,47,43,83,53,29,29.88,29.76,6,0,9,0.02
2013-7-26,73,61,54,60,54,46,95,81,45,29.91,29.82,6,0,8,0.18
2013-7-27,77,63,54,60,52,42,97,72,35,29.90,29.72,7,0,9,0.01
2013-7-28,79,62,48,52,45,35,84,56,28,29.75,29.62,7,0,8,0.00
2013-7-29,80,62,43,44,34,25,77,41,14,29.87,29.73,6,1,9,0.00
2013-7-30,81,65,48,47,42,35,76,47,21,29.90,29.81,8,1,10,0.00
2013-7-31,85,65,46,46,30,6,70,34,11,29.90,29.76,12,0,12,0.00
2013-8-1,84,64,44,29,18,0,46,21,3,29.81,29.69,9,0,9,0.00
2013-8-2,83,63,45,39,24,5,45,25,6,29.77,29.68,6,0,10,0.00
2013-8-3,83,63,43,34,20,1,43,22,5,29.82,29.75,9,1,10,0.00
2013-8-4,82,64,47,40,26,1,56,28,6,29.83,29.75,9,1,9,0.00
2013-8-5,82,65,49,36,19,3,41,20,6,29.83,29.74,7,1,8,0.00
2013-8-6,80,63,45,31,23,1,47,25,4,29.84,29.76,6,0,9,0.00
2013-8-7,78,63,49,28,21,2,36,21,6,29.84,29.77,10,1,11,0.00
2013-8-8,75,62,47,31,24,15,39,24,13,29.79,29.70,7,0,16,0.00
2013-8-9,77,60,42,33,24,14,47,28,11,29.78,29.72,7,0,8,0.00
2013-8-10,75,58,40,35,24,14,54,30,11,29.86,29.78,14,1,16,0.00
2013-8-11,75,58,38,35,28,23,70,36,17,29.89,29.78,9,1,12,0.00
2013-8-12,78,60,39,39,28,22,62,34,15,29.87,29.80,12,1,13,0.00
2013-8-13,78,61,41,38,28,22,63,34,13,29.90,29.79,11,1,13,0.00
2013-8-14,81,63,42,39,28,19,54,30,12,29.89,29.76,8,1,9,0.00
2013-8-15,83,66,48,44,39,29,60,39,21,29.84,29.74,12,1,12,0.00
2013-8-16,84,67,50,51,45,41,78,49,28,29.82,29.74,12,0,12,0.00
2013-8-17,88,70,50,47,43,36,74,42,21,29.81,29.64,9,0,9,0.00
2013-8-18,85,69,58,56,49,42,72,50,27,29.73,29.61,9,0,10,0.00
2013-8-19,81,67,55,54,49,44,78,56,29,29.75,29.67,9,0,9,0.00
2013-8-20,83,66,50,49,40,27,84,45,15,29.78,29.70,8,0,10,0.00
2013-8-21,86,68,51,46,39,33,65,37,17,29.77,29.68,13,1,13,0.00
2013-8-22,84,64,52,46,41,38,70,45,22,29.80,29.67,6,0,10,0.00
2013-8-23,81,64,47,47,38,32,78,43,19,29.74,29.60,8,1,8,0.00
2013-8-24,80,64,48,44,34,27,77,37,16,29.73,29.61,10,0,11,0.00
2013-8-25,78,61,44,50,43,35,86,56,26,29.81,29.70,12,0,12,0.00
2013-8-26,65,58,52,57,52,44,93,81,63,29.82,29.75,5,0,7,0.07
2013-8-27,78,61,47,59,52,46,96,73,42,29.81,29.67,14,0,14,0.01
2013-8-28,80,63,48,54,51,46,95,67,39,29.82,29.72,6,0,7,0.00
2013-8-29,74,61,50,60,54,46,93,79,55,29.91,29.80,10,0,11,0.16
2013-8-30,71,60,51,64,56,49,96,90,59,29.91,29.82,7,0,8,0.37
2013-8-31,77,63,56,61,57,55,97,82,54,29.89,29.74,7,0,8,0.00
2013-9-1,80,63,53,55,49,44,95,65,31,29.82,29.71,9,0,12,0.00
2013-9-2,76,61,48,57,50,45,90,69,39,29.80,29.71,5,0,5,0.00
2013-9-3,76,63,51,56,51,47,92,68,40,29.83,29.74,10,0,10,0.00
2013-9-4,76,58,49,59,50,46,92,77,41,29.89,29.82,8,0,11,0.29
2013-11-7,40,34,30,18,15,13,61,46,34,30.17,30.13,0,0,0,0.00
2013-11-8,64,41,26,21,11,0,66,33,6,30.14,29.98,6,0,8,0.00
2013-11-9,62,40,25,17,9,0,53,30,9,30.16,30.02,6,0,6,0.00
2013-11-10,61,41,29,24,12,0,59,34,8,30.20,30.10,9,0,9,0.00
2013-11-11,63,42,24,21,12,2,46,31,11,30.28,30.17,12,1,13,0.00
2013-11-12,66,45,29,25,17,8,56,34,14,30.34,30.20,4,0,6,0.00
2013-11-13,63,43,28,26,18,14,74,41,16,30.23,30.06,7,0,9,0.00
2013-11-14,62,44,26,24,19,14,69,40,18,30.16,29.78,9,0,11,0.00
2013-11-15,52,40,20,32,24,16,90,55,29,29.78,29.48,6,0,9,0.00
2013-11-16,52,34,19,35,27,15,95,78,33,29.94,29.68,6,0,6,0.00
2013-11-17,50,34,23,35,28,21,95,81,47,30.17,29.94,10,0,11,0.01
2013-11-18,54,36,21,36,28,19,95,73,39,30.23,30.09,4,0,6,0.00
2013-11-19,58,44,31,30,21,7,71,42,16,30.09,29.85,8,0,9,0.00
2013-11-20,53,43,34,38,34,28,95,72,52,29.85,29.71,8,0,9,0.00
2013-11-21,44,38,32,38,34,31,95,89,70,29.83,29.73,5,0,6,0.14
2013-11-22,32,29,27,31,27,25,95,94,90,30.03,29.82,5,0,5,0.00
2013-11-23,32,28,26,30,27,24,95,93,89,30.18,30.01,5,0,6,0.00
2013-11-24,36,28,23,33,26,21,95,92,79,30.35,30.17,7,0,7,0.06
2013-11-25,48,35,21,32,21,14,96,63,26,30.44,30.34,8,0,9,0.08
2013-11-26,51,37,23,27,23,17,84,59,33,30.39,30.15,9,0,9,0.01
2013-11-27,50,34,23,31,25,21,92,71,37,30.17,29.96,5,0,6,0.00
2013-11-28,46,30,22,28,23,19,92,76,42,30.22,30.02,7,0,8,0.00
2013-11-29,45,32,23,34,28,21,94,85,57,30.29,30.20,8,0,8,0.03
2013-11-30,44,32,22,35,25,20,96,79,51,30.33,30.20,5,0,6,0.01
2013-12-1,51,39,26,28,10,2,70,33,14,30.41,30.28,8,0,8,0.00
2013-12-2,60,41,25,24,14,6,61,35,18,30.33,29.92,6,0,6,0.00
2013-12-3,53,42,34,35,24,10,94,54,27,29.92,29.47,14,1,16,0.01
2013-12-4,34,26,20,32,18,2,95,74,27,29.95,29.47,8,0,16,0.01
2013-12-5,31,22,13,19,15,7,93,78,41,30.17,29.94,6,0,12,0.00
2013-12-6,35,23,14,22,17,5,93,79,30,30.26,30.14,6,0,8,0.00
2013-12-7,30,24,20,27,21,14,92,87,76,30.15,29.94,13,1,16,0.00
2013-12-8,36,20,6,18,8,0,93,61,20,30.32,30.10,5,0,7,0.00
2013-12-9,30,18,3,0,0,0,79,28,6,30.62,30.32,11,1,13,0.00
2013-12-10,42,23,7,6,0,0,61,34,13,30.60,30.35,9,0,11,0.01
2013-12-11,44,27,8,12,2,0,65,38,16,30.50,30.38,7,0,9,0.00
2013-12-12,40,29,22,33,17,0,92,63,30,30.43,30.23,6,0,7,0.02
2013-12-13,46,33,21,20,10,1,92,44,16,30.43,30.27,13,0,13,0.00
2013-12-14,45,32,23,14,7,0,61,36,17,30.54,30.39,9,1,11,0.00
2013-12-15,58,41,22,18,11,2,57,31,15,30.54,30.33,11,1,12,0.00
2013-12-16,62,40,27,23,18,6,71,44,19,30.39,30.26,9,1,12,0.00
2013-12-17,66,43,28,26,18,12,68,43,13,30.37,30.16,6,0,6,0.00
2013-12-18,59,45,35,24,19,12,55,37,20,30.16,29.65,8,0,9,0.00
2013-12-19,38,31,27,28,24,13,93,78,41,29.77,29.53,8,1,11,0.00
2013-12-20,35,28,21,28,19,3,93,72,38,30.06,29.77,8,0,8,0.03
2013-12-21,45,34,25,26,21,14,83,62,36,30.17,29.99,13,1,13,0.02
2013-12-22,48,31,18,25,18,7,87,62,19,30.46,30.16,5,0,6,0.03
2013-12-23,51,34,22,28,22,18,90,63,33,30.52,30.38,9,0,9,0.02
2013-12-24,53,34,23,26,20,14,84,62,24,30.45,30.34,13,0,14,0.00
2013-12-25,48,32,16,19,8,0,87,43,10,30.50,30.38,8,0,10,0.00
2013-12-26,49,34,16,8,2,0,64,27,11,30.49,30.36,14,1,14,0.00
2013-12-27,54,37,22,14,4,0,57,26,10,30.41,30.20,9,0,10,0.00
2013-12-28,53,37,25,21,7,0,65,33,9,30.22,30.02,8,1,10,0.00
2013-12-29,44,31,21,10,3,0,55,27,7,30.34,30.15,13,1,15,0.00
2013-12-30,59,34,19,7,1,0,48,21,5,30.44,30.28,4,0,6,0.00
2013-12-31,59,38,23,15,9,4,59,34,13,30.34,30.15,5,0,5,0.00
2014-1-1,54,36,23,20,13,6,65,43,23,30.28,30.15,10,0,10,0.00
2014-1-2,56,35,21,22,16,14,78,51,21,30.30,30.13,7,0,9,0.00